sensor_id;sensor_type;location;lat;lon;timestamp;temperature;humidity
52941;DHT22;62001;53.366;6.636;2023-04-12T00:01:48;5.70;99.90
52941;DHT22;62001;53.366;6.636;2023-04-12T00:04:14;5.70;99.90
52941;DHT22;62001;53.366;6.636;2023-04-12T00:06:41;5.70;99.90
52941;DHT22;62001;53.366;6.636;2023-04-12T00:09:07;5.70;99.90
52941;DHT22;62001;53.366;6.636;2023-04-12T00:11:34;5.70;99.90
52941;DHT22;62001;53.366;6.636;2023-04-12T00:14:00;5.80;99.90
52941;DHT22;62001;53.366;6.636;2023-04-12T00:16:26;5.80;99.90
52941;DHT22;62001;53.366;6.636;2023-04-12T00:18:52;5.80;99.90
52941;DHT22;62001;53.366;6.636;2023-04-12T00:21:17;5.80;99.90
52941;DHT22;62001;53.366;6.636;2023-04-12T00:23:45;5.90;99.90
52941;DHT22;62001;53.366;6.636;2023-04-12T00:26:12;5.90;99.90
52941;DHT22;62001;53.366;6.636;2023-04-12T00:28:39;5.90;99.90
52941;DHT22;62001;53.366;6.636;2023-04-12T00:31:05;5.90;99.90
52941;DHT22;62001;53.366;6.636;2023-04-12T00:33:33;6.00;99.90
52941;DHT22;62001;53.366;6.636;2023-04-12T00:35:59;6.00;99.90
52941;DHT22;62001;53.366;6.636;2023-04-12T00:38:25;6.00;99.90
52941;DHT22;62001;53.366;6.636;2023-04-12T00:40:51;6.00;99.90
52941;DHT22;62001;53.366;6.636;2023-04-12T00:43:16;6.00;99.90
52941;DHT22;62001;53.366;6.636;2023-04-12T00:45:46;6.00;99.90
52941;DHT22;62001;53.366;6.636;2023-04-12T00:48:12;6.00;99.90
52941;DHT22;62001;53.366;6.636;2023-04-12T00:50:39;6.00;99.90
52941;DHT22;62001;53.366;6.636;2023-04-12T00:53:15;6.00;99.90
52941;DHT22;62001;53.366;6.636;2023-04-12T00:55:43;6.10;99.90
52941;DHT22;62001;53.366;6.636;2023-04-12T00:58:09;6.20;99.90
52941;DHT22;62001;53.366;6.636;2023-04-12T01:00:35;6.20;99.90
52941;DHT22;62001;53.366;6.636;2023-04-12T01:03:01;6.20;99.90
52941;DHT22;62001;53.366;6.636;2023-04-12T01:05:29;6.30;99.90
52941;DHT22;62001;53.366;6.636;2023-04-12T01:08:19;6.30;99.90
52941;DHT22;62001;53.366;6.636;2023-04-12T01:10:51;6.40;99.90
52941;DHT22;62001;53.366;6.636;2023-04-12T01:13:34;6.40;99.90
52941;DHT22;62001;53.366;6.636;2023-04-12T01:16:14;6.50;99.90
52941;DHT22;62001;53.366;6.636;2023-04-12T01:18:45;6.50;99.90
52941;DHT22;62001;53.366;6.636;2023-04-12T01:21:23;6.50;99.90
52941;DHT22;62001;53.366;6.636;2023-04-12T01:26:38;6.60;99.90
52941;DHT22;62001;53.366;6.636;2023-04-12T01:29:09;6.60;99.90
52941;DHT22;62001;53.366;6.636;2023-04-12T01:31:41;6.60;99.90
52941;DHT22;62001;53.366;6.636;2023-04-12T01:34:09;6.70;99.90
52941;DHT22;62001;53.366;6.636;2023-04-12T01:36:36;6.70;99.90
52941;DHT22;62001;53.366;6.636;2023-04-12T01:39:04;6.70;99.90
52941;DHT22;62001;53.366;6.636;2023-04-12T01:41:31;6.70;99.90
52941;DHT22;62001;53.366;6.636;2023-04-12T01:43:58;6.80;99.90
52941;DHT22;62001;53.366;6.636;2023-04-12T01:46:23;6.80;99.90
52941;DHT22;62001;53.366;6.636;2023-04-12T01:48:51;6.90;99.90
52941;DHT22;62001;53.366;6.636;2023-04-12T01:51:32;7.00;99.90
52941;DHT22;62001;53.366;6.636;2023-04-12T01:54:02;7.00;99.90
52941;DHT22;62001;53.366;6.636;2023-04-12T01:56:30;7.00;99.90
52941;DHT22;62001;53.366;6.636;2023-04-12T01:58:58;7.00;99.90
52941;DHT22;62001;53.366;6.636;2023-04-12T02:01:25;7.00;99.90
52941;DHT22;62001;53.366;6.636;2023-04-12T02:03:54;7.00;99.90
52941;DHT22;62001;53.366;6.636;2023-04-12T02:06:22;7.00;99.90
52941;DHT22;62001;53.366;6.636;2023-04-12T02:08:48;7.00;99.90
52941;DHT22;62001;53.366;6.636;2023-04-12T02:11:14;7.00;99.90
52941;DHT22;62001;53.366;6.636;2023-04-12T02:13:40;7.00;99.90
52941;DHT22;62001;53.366;6.636;2023-04-12T02:16:07;7.00;99.90
52941;DHT22;62001;53.366;6.636;2023-04-12T02:18:35;7.00;99.90
52941;DHT22;62001;53.366;6.636;2023-04-12T02:21:01;7.00;99.90
52941;DHT22;62001;53.366;6.636;2023-04-12T02:23:27;7.00;99.90
52941;DHT22;62001;53.366;6.636;2023-04-12T02:25:52;6.90;99.90
52941;DHT22;62001;53.366;6.636;2023-04-12T02:28:18;6.90;99.90
52941;DHT22;62001;53.366;6.636;2023-04-12T02:30:44;6.90;99.90
52941;DHT22;62001;53.366;6.636;2023-04-12T02:33:10;6.90;99.90
52941;DHT22;62001;53.366;6.636;2023-04-12T02:35:37;6.90;99.90
52941;DHT22;62001;53.366;6.636;2023-04-12T02:38:03;6.90;99.90
52941;DHT22;62001;53.366;6.636;2023-04-12T02:40:33;6.90;99.90
52941;DHT22;62001;53.366;6.636;2023-04-12T02:43:00;7.00;99.90
52941;DHT22;62001;53.366;6.636;2023-04-12T02:45:26;7.00;99.90
52941;DHT22;62001;53.366;6.636;2023-04-12T02:47:52;7.10;99.90
52941;DHT22;62001;53.366;6.636;2023-04-12T02:50:17;7.10;99.90
52941;DHT22;62001;53.366;6.636;2023-04-12T02:52:43;7.10;99.90
52941;DHT22;62001;53.366;6.636;2023-04-12T02:55:09;7.10;99.90
52941;DHT22;62001;53.366;6.636;2023-04-12T02:57:35;7.10;99.90
52941;DHT22;62001;53.366;6.636;2023-04-12T03:00:01;7.20;99.90
52941;DHT22;62001;53.366;6.636;2023-04-12T03:02:31;7.20;99.90
52941;DHT22;62001;53.366;6.636;2023-04-12T03:04:57;7.20;99.90
52941;DHT22;62001;53.366;6.636;2023-04-12T03:07:23;7.20;99.90
52941;DHT22;62001;53.366;6.636;2023-04-12T03:09:49;7.20;99.90
52941;DHT22;62001;53.366;6.636;2023-04-12T03:12:15;7.30;99.90
52941;DHT22;62001;53.366;6.636;2023-04-12T03:14:41;7.30;99.90
52941;DHT22;62001;53.366;6.636;2023-04-12T03:17:08;7.20;99.90
52941;DHT22;62001;53.366;6.636;2023-04-12T03:19:34;7.30;99.90
52941;DHT22;62001;53.366;6.636;2023-04-12T03:22:02;7.30;99.90
52941;DHT22;62001;53.366;6.636;2023-04-12T03:24:29;7.30;99.90
52941;DHT22;62001;53.366;6.636;2023-04-12T03:27:00;7.30;99.90
52941;DHT22;62001;53.366;6.636;2023-04-12T03:29:26;7.30;99.90
52941;DHT22;62001;53.366;6.636;2023-04-12T03:31:52;7.30;99.90
52941;DHT22;62001;53.366;6.636;2023-04-12T03:34:18;7.30;99.90
52941;DHT22;62001;53.366;6.636;2023-04-12T03:36:44;7.30;99.90
52941;DHT22;62001;53.366;6.636;2023-04-12T03:39:10;7.40;99.90
52941;DHT22;62001;53.366;6.636;2023-04-12T03:41:36;7.40;99.90
52941;DHT22;62001;53.366;6.636;2023-04-12T03:44:02;7.50;99.90
52941;DHT22;62001;53.366;6.636;2023-04-12T03:46:28;7.50;99.90
52941;DHT22;62001;53.366;6.636;2023-04-12T03:48:54;7.50;99.90
52941;DHT22;62001;53.366;6.636;2023-04-12T03:51:20;7.50;99.90
52941;DHT22;62001;53.366;6.636;2023-04-12T03:53:46;7.50;99.90
52941;DHT22;62001;53.366;6.636;2023-04-12T03:56:12;7.50;99.90
52941;DHT22;62001;53.366;6.636;2023-04-12T03:58:38;7.50;99.90
52941;DHT22;62001;53.366;6.636;2023-04-12T04:01:04;7.50;99.90
52941;DHT22;62001;53.366;6.636;2023-04-12T04:03:31;7.50;99.90
52941;DHT22;62001;53.366;6.636;2023-04-12T04:06:02;7.50;99.90
52941;DHT22;62001;53.366;6.636;2023-04-12T04:08:28;7.50;99.90
52941;DHT22;62001;53.366;6.636;2023-04-12T04:10:58;7.50;99.90
52941;DHT22;62001;53.366;6.636;2023-04-12T04:13:24;7.50;99.90
52941;DHT22;62001;53.366;6.636;2023-04-12T04:15:55;7.50;99.90
52941;DHT22;62001;53.366;6.636;2023-04-12T04:18:23;7.50;99.90
52941;DHT22;62001;53.366;6.636;2023-04-12T04:20:49;7.40;99.90
52941;DHT22;62001;53.366;6.636;2023-04-12T04:23:15;7.40;99.90
52941;DHT22;62001;53.366;6.636;2023-04-12T04:25:42;7.40;99.90
52941;DHT22;62001;53.366;6.636;2023-04-12T04:28:09;7.40;99.90
52941;DHT22;62001;53.366;6.636;2023-04-12T04:30:35;7.40;99.90
52941;DHT22;62001;53.366;6.636;2023-04-12T04:33:06;7.40;99.90
52941;DHT22;62001;53.366;6.636;2023-04-12T04:35:32;7.40;99.90
52941;DHT22;62001;53.366;6.636;2023-04-12T04:37:58;7.40;99.90
52941;DHT22;62001;53.366;6.636;2023-04-12T04:40:27;7.30;99.90
52941;DHT22;62001;53.366;6.636;2023-04-12T04:42:53;7.30;99.90
52941;DHT22;62001;53.366;6.636;2023-04-12T04:45:23;7.40;99.90
52941;DHT22;62001;53.366;6.636;2023-04-12T04:47:52;7.40;99.90
52941;DHT22;62001;53.366;6.636;2023-04-12T04:50:20;7.40;99.90
52941;DHT22;62001;53.366;6.636;2023-04-12T04:52:46;7.40;99.90
52941;DHT22;62001;53.366;6.636;2023-04-12T04:55:16;7.40;99.90
52941;DHT22;62001;53.366;6.636;2023-04-12T04:57:42;7.40;99.90
52941;DHT22;62001;53.366;6.636;2023-04-12T05:00:09;7.30;99.90
52941;DHT22;62001;53.366;6.636;2023-04-12T05:02:40;7.30;99.90
52941;DHT22;62001;53.366;6.636;2023-04-12T05:05:11;7.30;99.90
52941;DHT22;62001;53.366;6.636;2023-04-12T05:07:40;7.30;99.90
52941;DHT22;62001;53.366;6.636;2023-04-12T05:10:09;7.30;99.90
52941;DHT22;62001;53.366;6.636;2023-04-12T05:12:36;7.30;99.90
52941;DHT22;62001;53.366;6.636;2023-04-12T05:15:02;7.30;99.90
52941;DHT22;62001;53.366;6.636;2023-04-12T05:17:28;7.30;99.90
52941;DHT22;62001;53.366;6.636;2023-04-12T05:19:54;7.30;99.90
52941;DHT22;62001;53.366;6.636;2023-04-12T05:22:20;7.30;99.90
52941;DHT22;62001;53.366;6.636;2023-04-12T05:24:47;7.20;99.90
52941;DHT22;62001;53.366;6.636;2023-04-12T05:27:13;7.20;99.90
52941;DHT22;62001;53.366;6.636;2023-04-12T05:29:42;7.20;99.90
52941;DHT22;62001;53.366;6.636;2023-04-12T05:32:07;7.20;99.90
52941;DHT22;62001;53.366;6.636;2023-04-12T05:34:33;7.10;99.90
52941;DHT22;62001;53.366;6.636;2023-04-12T05:36:59;7.20;99.90
52941;DHT22;62001;53.366;6.636;2023-04-12T05:39:26;7.20;99.90
52941;DHT22;62001;53.366;6.636;2023-04-12T05:41:52;7.20;99.90
52941;DHT22;62001;53.366;6.636;2023-04-12T05:44:18;7.20;99.90
52941;DHT22;62001;53.366;6.636;2023-04-12T05:46:44;7.20;99.90
52941;DHT22;62001;53.366;6.636;2023-04-12T05:49:10;7.20;99.90
52941;DHT22;62001;53.366;6.636;2023-04-12T05:51:36;7.20;99.90
52941;DHT22;62001;53.366;6.636;2023-04-12T05:54:03;7.20;99.90
52941;DHT22;62001;53.366;6.636;2023-04-12T05:56:32;7.20;99.90
52941;DHT22;62001;53.366;6.636;2023-04-12T05:58:58;7.20;99.90
52941;DHT22;62001;53.366;6.636;2023-04-12T06:01:26;7.20;99.90
52941;DHT22;62001;53.366;6.636;2023-04-12T06:03:59;7.20;99.90
52941;DHT22;62001;53.366;6.636;2023-04-12T06:06:26;7.20;99.90
52941;DHT22;62001;53.366;6.636;2023-04-12T06:08:55;7.20;99.90
52941;DHT22;62001;53.366;6.636;2023-04-12T06:11:25;7.20;99.90
52941;DHT22;62001;53.366;6.636;2023-04-12T06:13:50;7.20;99.90
52941;DHT22;62001;53.366;6.636;2023-04-12T06:16:16;7.20;99.90
52941;DHT22;62001;53.366;6.636;2023-04-12T06:18:42;7.20;99.90
52941;DHT22;62001;53.366;6.636;2023-04-12T06:21:08;7.20;99.90
52941;DHT22;62001;53.366;6.636;2023-04-12T06:23:34;7.20;99.90
52941;DHT22;62001;53.366;6.636;2023-04-12T06:26:00;7.20;99.90
52941;DHT22;62001;53.366;6.636;2023-04-12T06:28:26;7.10;99.90
52941;DHT22;62001;53.366;6.636;2023-04-12T06:30:51;7.10;99.90
52941;DHT22;62001;53.366;6.636;2023-04-12T06:33:18;7.10;99.90
52941;DHT22;62001;53.366;6.636;2023-04-12T06:35:47;7.20;99.90
52941;DHT22;62001;53.366;6.636;2023-04-12T06:38:13;7.10;99.90
52941;DHT22;62001;53.366;6.636;2023-04-12T06:40:39;7.10;99.90
52941;DHT22;62001;53.366;6.636;2023-04-12T06:43:05;7.20;99.90
52941;DHT22;62001;53.366;6.636;2023-04-12T06:45:31;7.20;99.90
52941;DHT22;62001;53.366;6.636;2023-04-12T06:47:57;7.20;99.90
52941;DHT22;62001;53.366;6.636;2023-04-12T06:50:24;7.20;99.90
52941;DHT22;62001;53.366;6.636;2023-04-12T06:52:51;7.20;99.90
52941;DHT22;62001;53.366;6.636;2023-04-12T06:55:17;7.10;99.90
52941;DHT22;62001;53.366;6.636;2023-04-12T06:57:43;7.10;99.90
52941;DHT22;62001;53.366;6.636;2023-04-12T07:00:10;7.10;99.90
52941;DHT22;62001;53.366;6.636;2023-04-12T07:02:36;7.20;99.90
52941;DHT22;62001;53.366;6.636;2023-04-12T07:05:06;7.20;99.90
52941;DHT22;62001;53.366;6.636;2023-04-12T07:07:32;7.20;99.90
52941;DHT22;62001;53.366;6.636;2023-04-12T07:09:57;7.20;99.90
52941;DHT22;62001;53.366;6.636;2023-04-12T07:12:25;7.30;99.90
52941;DHT22;62001;53.366;6.636;2023-04-12T07:14:50;7.20;99.90
52941;DHT22;62001;53.366;6.636;2023-04-12T07:17:16;7.30;99.90
52941;DHT22;62001;53.366;6.636;2023-04-12T07:19:42;7.20;99.90
52941;DHT22;62001;53.366;6.636;2023-04-12T07:22:09;7.30;99.90
52941;DHT22;62001;53.366;6.636;2023-04-12T07:24:35;7.30;99.90
52941;DHT22;62001;53.366;6.636;2023-04-12T07:27:01;7.30;99.90
52941;DHT22;62001;53.366;6.636;2023-04-12T07:29:26;7.30;99.90
52941;DHT22;62001;53.366;6.636;2023-04-12T07:31:52;7.30;99.90
52941;DHT22;62001;53.366;6.636;2023-04-12T07:34:18;7.30;99.90
52941;DHT22;62001;53.366;6.636;2023-04-12T07:36:44;7.30;99.90
52941;DHT22;62001;53.366;6.636;2023-04-12T07:39:10;7.20;99.90
52941;DHT22;62001;53.366;6.636;2023-04-12T07:41:40;7.30;99.90
52941;DHT22;62001;53.366;6.636;2023-04-12T07:44:07;7.30;99.90
52941;DHT22;62001;53.366;6.636;2023-04-12T07:46:33;7.30;99.90
52941;DHT22;62001;53.366;6.636;2023-04-12T07:48:59;7.30;99.90
52941;DHT22;62001;53.366;6.636;2023-04-12T07:51:25;7.30;99.90
52941;DHT22;62001;53.366;6.636;2023-04-12T07:53:51;7.40;99.90
52941;DHT22;62001;53.366;6.636;2023-04-12T07:56:17;7.40;99.90
52941;DHT22;62001;53.366;6.636;2023-04-12T07:58:42;7.40;99.90
52941;DHT22;62001;53.366;6.636;2023-04-12T08:01:10;7.40;99.90
52941;DHT22;62001;53.366;6.636;2023-04-12T08:03:37;7.40;99.90
52941;DHT22;62001;53.366;6.636;2023-04-12T08:06:03;7.40;99.90
52941;DHT22;62001;53.366;6.636;2023-04-12T08:08:30;7.40;99.90
52941;DHT22;62001;53.366;6.636;2023-04-12T08:10:56;7.50;99.90
52941;DHT22;62001;53.366;6.636;2023-04-12T08:13:21;7.50;99.90
52941;DHT22;62001;53.366;6.636;2023-04-12T08:15:47;7.50;99.90
52941;DHT22;62001;53.366;6.636;2023-04-12T08:18:13;7.50;99.90
52941;DHT22;62001;53.366;6.636;2023-04-12T08:20:39;7.50;99.90
52941;DHT22;62001;53.366;6.636;2023-04-12T08:23:06;7.50;99.90
52941;DHT22;62001;53.366;6.636;2023-04-12T08:25:32;7.60;99.90
52941;DHT22;62001;53.366;6.636;2023-04-12T08:27:58;7.60;99.90
52941;DHT22;62001;53.366;6.636;2023-04-12T08:30:24;7.70;99.90
52941;DHT22;62001;53.366;6.636;2023-04-12T08:32:51;7.80;99.90
52941;DHT22;62001;53.366;6.636;2023-04-12T08:35:18;7.80;99.90
52941;DHT22;62001;53.366;6.636;2023-04-12T08:37:44;7.90;99.90
52941;DHT22;62001;53.366;6.636;2023-04-12T08:40:10;7.90;99.90
52941;DHT22;62001;53.366;6.636;2023-04-12T08:42:37;7.90;99.90
52941;DHT22;62001;53.366;6.636;2023-04-12T08:45:07;8.00;99.90
52941;DHT22;62001;53.366;6.636;2023-04-12T08:47:37;8.00;99.90
52941;DHT22;62001;53.366;6.636;2023-04-12T08:50:05;8.00;99.90
52941;DHT22;62001;53.366;6.636;2023-04-12T08:52:36;8.10;99.90
52941;DHT22;62001;53.366;6.636;2023-04-12T08:55:06;8.20;99.90
52941;DHT22;62001;53.366;6.636;2023-04-12T08:57:34;8.20;99.90
52941;DHT22;62001;53.366;6.636;2023-04-12T09:00:02;8.20;99.90
52941;DHT22;62001;53.366;6.636;2023-04-12T09:02:29;8.20;99.90
52941;DHT22;62001;53.366;6.636;2023-04-12T09:04:55;8.20;99.90
52941;DHT22;62001;53.366;6.636;2023-04-12T09:07:22;8.20;99.90
52941;DHT22;62001;53.366;6.636;2023-04-12T09:09:49;8.20;99.90
52941;DHT22;62001;53.366;6.636;2023-04-12T09:12:16;8.20;99.90
52941;DHT22;62001;53.366;6.636;2023-04-12T09:14:44;8.20;99.90
52941;DHT22;62001;53.366;6.636;2023-04-12T09:17:24;8.20;99.90
52941;DHT22;62001;53.366;6.636;2023-04-12T09:19:50;8.30;99.90
52941;DHT22;62001;53.366;6.636;2023-04-12T09:22:16;8.20;99.90
52941;DHT22;62001;53.366;6.636;2023-04-12T09:24:49;8.30;99.90
52941;DHT22;62001;53.366;6.636;2023-04-12T09:27:18;8.40;99.90
52941;DHT22;62001;53.366;6.636;2023-04-12T09:29:47;8.50;99.90
52941;DHT22;62001;53.366;6.636;2023-04-12T09:32:25;8.60;99.90
52941;DHT22;62001;53.366;6.636;2023-04-12T09:34:56;8.70;99.90
52941;DHT22;62001;53.366;6.636;2023-04-12T09:37:22;8.80;99.90
52941;DHT22;62001;53.366;6.636;2023-04-12T09:40:04;8.80;99.90
52941;DHT22;62001;53.366;6.636;2023-04-12T09:42:35;8.90;99.90
52941;DHT22;62001;53.366;6.636;2023-04-12T09:45:24;8.90;99.90
52941;DHT22;62001;53.366;6.636;2023-04-12T09:47:51;9.10;99.90
52941;DHT22;62001;53.366;6.636;2023-04-12T09:50:22;9.20;99.90
52941;DHT22;62001;53.366;6.636;2023-04-12T09:52:48;9.20;99.90
52941;DHT22;62001;53.366;6.636;2023-04-12T09:55:14;9.30;99.90
52941;DHT22;62001;53.366;6.636;2023-04-12T09:57:41;9.40;99.90
52941;DHT22;62001;53.366;6.636;2023-04-12T10:00:09;9.60;99.90
52941;DHT22;62001;53.366;6.636;2023-04-12T10:02:43;9.80;99.90
52941;DHT22;62001;53.366;6.636;2023-04-12T10:05:10;10.30;99.90
52941;DHT22;62001;53.366;6.636;2023-04-12T10:07:39;11.00;99.90
52941;DHT22;62001;53.366;6.636;2023-04-12T10:10:13;11.40;99.90
52941;DHT22;62001;53.366;6.636;2023-04-12T10:12:40;11.80;99.90
52941;DHT22;62001;53.366;6.636;2023-04-12T10:15:08;12.00;99.90
52941;DHT22;62001;53.366;6.636;2023-04-12T10:17:49;12.40;99.90
52941;DHT22;62001;53.366;6.636;2023-04-12T10:20:16;13.10;99.90
52941;DHT22;62001;53.366;6.636;2023-04-12T10:22:45;13.50;99.90
52941;DHT22;62001;53.366;6.636;2023-04-12T10:25:19;13.10;99.90
52941;DHT22;62001;53.366;6.636;2023-04-12T10:27:45;12.80;99.90
52941;DHT22;62001;53.366;6.636;2023-04-12T10:30:28;12.50;99.90
52941;DHT22;62001;53.366;6.636;2023-04-12T10:38:15;12.50;99.90
52941;DHT22;62001;53.366;6.636;2023-04-12T10:41:33;12.70;99.90
52941;DHT22;62001;53.366;6.636;2023-04-12T10:44:24;13.00;99.90
52941;DHT22;62001;53.366;6.636;2023-04-12T10:46:51;13.30;99.90
52941;DHT22;62001;53.366;6.636;2023-04-12T10:49:17;13.30;99.90
52941;DHT22;62001;53.366;6.636;2023-04-12T10:54:31;13.50;99.90
52941;DHT22;62001;53.366;6.636;2023-04-12T10:57:01;13.50;99.90
52941;DHT22;62001;53.366;6.636;2023-04-12T10:59:50;13.40;99.90
52941;DHT22;62001;53.366;6.636;2023-04-12T11:02:17;13.40;99.90
52941;DHT22;62001;53.366;6.636;2023-04-12T11:05:08;13.40;99.90
52941;DHT22;62001;53.366;6.636;2023-04-12T11:07:42;13.30;99.90
52941;DHT22;62001;53.366;6.636;2023-04-12T11:10:14;13.30;99.90
52941;DHT22;62001;53.366;6.636;2023-04-12T11:12:48;13.50;99.90
52941;DHT22;62001;53.366;6.636;2023-04-12T11:15:15;13.80;99.90
52941;DHT22;62001;53.366;6.636;2023-04-12T11:17:41;13.90;99.90
52941;DHT22;62001;53.366;6.636;2023-04-12T11:20:10;14.00;99.90
52941;DHT22;62001;53.366;6.636;2023-04-12T11:22:37;14.10;99.90
52941;DHT22;62001;53.366;6.636;2023-04-12T11:25:03;14.10;99.90
52941;DHT22;62001;53.366;6.636;2023-04-12T11:27:29;14.20;99.90
52941;DHT22;62001;53.366;6.636;2023-04-12T11:29:58;14.30;99.90
52941;DHT22;62001;53.366;6.636;2023-04-12T11:32:28;14.20;99.90
52941;DHT22;62001;53.366;6.636;2023-04-12T11:34:56;14.10;99.90
52941;DHT22;62001;53.366;6.636;2023-04-12T11:37:22;14.10;99.90
52941;DHT22;62001;53.366;6.636;2023-04-12T11:39:51;14.10;99.90
52941;DHT22;62001;53.366;6.636;2023-04-12T11:42:19;13.90;99.90
52941;DHT22;62001;53.366;6.636;2023-04-12T11:44:46;13.80;99.90
52941;DHT22;62001;53.366;6.636;2023-04-12T11:47:20;13.70;99.90
52941;DHT22;62001;53.366;6.636;2023-04-12T11:49:49;13.80;99.90
52941;DHT22;62001;53.366;6.636;2023-04-12T11:52:16;13.90;99.90
52941;DHT22;62001;53.366;6.636;2023-04-12T11:54:44;14.00;99.90
52941;DHT22;62001;53.366;6.636;2023-04-12T11:57:11;13.90;99.90
52941;DHT22;62001;53.366;6.636;2023-04-12T11:59:37;13.90;99.90
52941;DHT22;62001;53.366;6.636;2023-04-12T12:02:05;13.80;99.90
52941;DHT22;62001;53.366;6.636;2023-04-12T12:04:31;13.90;99.90
52941;DHT22;62001;53.366;6.636;2023-04-12T12:06:58;14.10;99.90
52941;DHT22;62001;53.366;6.636;2023-04-12T12:09:25;14.20;99.90
52941;DHT22;62001;53.366;6.636;2023-04-12T12:11:52;14.30;99.90
52941;DHT22;62001;53.366;6.636;2023-04-12T12:14:19;14.30;99.90
52941;DHT22;62001;53.366;6.636;2023-04-12T12:16:53;14.30;99.90
52941;DHT22;62001;53.366;6.636;2023-04-12T12:19:27;14.30;99.90
52941;DHT22;62001;53.366;6.636;2023-04-12T12:21:53;14.20;99.90
52941;DHT22;62001;53.366;6.636;2023-04-12T12:24:29;14.20;99.90
52941;DHT22;62001;53.366;6.636;2023-04-12T12:26:55;14.00;99.90
52941;DHT22;62001;53.366;6.636;2023-04-12T12:29:23;13.80;99.90
52941;DHT22;62001;53.366;6.636;2023-04-12T12:31:50;13.60;99.90
52941;DHT22;62001;53.366;6.636;2023-04-12T12:34:17;13.50;99.90
52941;DHT22;62001;53.366;6.636;2023-04-12T12:36:53;13.40;99.90
52941;DHT22;62001;53.366;6.636;2023-04-12T12:39:20;13.40;99.90
52941;DHT22;62001;53.366;6.636;2023-04-12T12:41:53;13.30;99.90
52941;DHT22;62001;53.366;6.636;2023-04-12T12:44:23;13.40;99.90
52941;DHT22;62001;53.366;6.636;2023-04-12T12:46:49;13.40;99.90
52941;DHT22;62001;53.366;6.636;2023-04-12T12:49:16;13.40;99.90
52941;DHT22;62001;53.366;6.636;2023-04-12T12:51:42;13.50;99.90
52941;DHT22;62001;53.366;6.636;2023-04-12T12:54:08;13.40;99.90
52941;DHT22;62001;53.366;6.636;2023-04-12T12:56:34;13.40;99.90
52941;DHT22;62001;53.366;6.636;2023-04-12T12:59:00;13.40;99.90
52941;DHT22;62001;53.366;6.636;2023-04-12T13:01:26;13.40;99.90
52941;DHT22;62001;53.366;6.636;2023-04-12T13:03:52;13.30;99.90
52941;DHT22;62001;53.366;6.636;2023-04-12T13:06:18;13.30;99.90
52941;DHT22;62001;53.366;6.636;2023-04-12T13:08:44;13.20;99.90
52941;DHT22;62001;53.366;6.636;2023-04-12T13:11:11;13.50;99.90
52941;DHT22;62001;53.366;6.636;2023-04-12T13:13:37;13.80;99.90
52941;DHT22;62001;53.366;6.636;2023-04-12T13:16:03;14.10;99.90
52941;DHT22;62001;53.366;6.636;2023-04-12T13:18:29;14.30;99.90
52941;DHT22;62001;53.366;6.636;2023-04-12T13:20:55;14.40;99.90
52941;DHT22;62001;53.366;6.636;2023-04-12T13:23:21;14.30;99.90
52941;DHT22;62001;53.366;6.636;2023-04-12T13:25:47;14.10;99.90
52941;DHT22;62001;53.366;6.636;2023-04-12T13:28:13;13.90;99.90
52941;DHT22;62001;53.366;6.636;2023-04-12T13:30:41;13.70;99.90
52941;DHT22;62001;53.366;6.636;2023-04-12T13:33:07;13.70;99.90
52941;DHT22;62001;53.366;6.636;2023-04-12T13:35:33;13.70;99.90
52941;DHT22;62001;53.366;6.636;2023-04-12T13:37:59;13.70;99.90
52941;DHT22;62001;53.366;6.636;2023-04-12T13:40:25;13.60;99.90
52941;DHT22;62001;53.366;6.636;2023-04-12T13:42:51;13.50;99.90
52941;DHT22;62001;53.366;6.636;2023-04-12T13:45:17;13.30;99.90
52941;DHT22;62001;53.366;6.636;2023-04-12T13:47:42;13.20;99.90
52941;DHT22;62001;53.366;6.636;2023-04-12T13:50:09;13.10;99.90
52941;DHT22;62001;53.366;6.636;2023-04-12T13:52:35;13.00;99.90
52941;DHT22;62001;53.366;6.636;2023-04-12T13:55:00;12.90;99.90
52941;DHT22;62001;53.366;6.636;2023-04-12T13:57:26;12.80;99.90
52941;DHT22;62001;53.366;6.636;2023-04-12T13:59:52;12.50;99.90
52941;DHT22;62001;53.366;6.636;2023-04-12T14:02:18;12.30;99.90
52941;DHT22;62001;53.366;6.636;2023-04-12T14:04:51;12.20;99.90
52941;DHT22;62001;53.366;6.636;2023-04-12T14:07:18;12.10;99.90
52941;DHT22;62001;53.366;6.636;2023-04-12T14:09:44;12.00;99.90
52941;DHT22;62001;53.366;6.636;2023-04-12T14:12:10;12.00;99.90
52941;DHT22;62001;53.366;6.636;2023-04-12T14:14:36;11.90;99.90
52941;DHT22;62001;53.366;6.636;2023-04-12T14:17:01;11.90;99.90
52941;DHT22;62001;53.366;6.636;2023-04-12T14:19:27;12.00;99.90
52941;DHT22;62001;53.366;6.636;2023-04-12T14:21:53;12.00;99.90
52941;DHT22;62001;53.366;6.636;2023-04-12T14:24:20;12.00;99.90
52941;DHT22;62001;53.366;6.636;2023-04-12T14:26:46;12.00;99.90
52941;DHT22;62001;53.366;6.636;2023-04-12T14:29:14;11.90;99.90
52941;DHT22;62001;53.366;6.636;2023-04-12T14:31:40;11.90;99.90
52941;DHT22;62001;53.366;6.636;2023-04-12T14:34:06;12.00;99.90
52941;DHT22;62001;53.366;6.636;2023-04-12T14:36:35;12.00;99.90
52941;DHT22;62001;53.366;6.636;2023-04-12T14:39:01;12.10;99.90
52941;DHT22;62001;53.366;6.636;2023-04-12T14:41:31;12.10;99.90
52941;DHT22;62001;53.366;6.636;2023-04-12T14:44:00;12.10;99.90
52941;DHT22;62001;53.366;6.636;2023-04-12T14:46:26;12.10;99.90
52941;DHT22;62001;53.366;6.636;2023-04-12T14:48:53;12.10;99.90
52941;DHT22;62001;53.366;6.636;2023-04-12T14:51:19;12.20;99.90
52941;DHT22;62001;53.366;6.636;2023-04-12T14:53:45;12.30;99.90
52941;DHT22;62001;53.366;6.636;2023-04-12T14:56:21;12.30;99.90
52941;DHT22;62001;53.366;6.636;2023-04-12T14:58:47;12.30;99.90
52941;DHT22;62001;53.366;6.636;2023-04-12T15:01:13;12.20;99.90
52941;DHT22;62001;53.366;6.636;2023-04-12T15:03:39;12.10;99.90
52941;DHT22;62001;53.366;6.636;2023-04-12T15:06:08;12.00;99.90
52941;DHT22;62001;53.366;6.636;2023-04-12T15:08:34;12.10;99.90
52941;DHT22;62001;53.366;6.636;2023-04-12T15:11:11;12.10;99.90
52941;DHT22;62001;53.366;6.636;2023-04-12T15:13:40;12.20;99.90
52941;DHT22;62001;53.366;6.636;2023-04-12T15:16:09;12.20;99.90
52941;DHT22;62001;53.366;6.636;2023-04-12T15:18:39;12.00;99.90
52941;DHT22;62001;53.366;6.636;2023-04-12T15:21:08;11.80;99.90
52941;DHT22;62001;53.366;6.636;2023-04-12T15:23:35;11.70;99.90
52941;DHT22;62001;53.366;6.636;2023-04-12T15:26:01;11.60;99.90
52941;DHT22;62001;53.366;6.636;2023-04-12T15:28:27;11.50;99.90
52941;DHT22;62001;53.366;6.636;2023-04-12T15:30:54;11.40;99.90
52941;DHT22;62001;53.366;6.636;2023-04-12T15:33:20;11.40;99.90
52941;DHT22;62001;53.366;6.636;2023-04-12T15:35:49;11.30;99.90
52941;DHT22;62001;53.366;6.636;2023-04-12T15:38:15;11.20;99.90
52941;DHT22;62001;53.366;6.636;2023-04-12T15:40:41;11.10;99.90
52941;DHT22;62001;53.366;6.636;2023-04-12T15:43:07;11.10;99.90
52941;DHT22;62001;53.366;6.636;2023-04-12T15:45:33;11.00;99.90
52941;DHT22;62001;53.366;6.636;2023-04-12T15:47:59;10.90;99.90
52941;DHT22;62001;53.366;6.636;2023-04-12T15:50:25;10.90;99.90
52941;DHT22;62001;53.366;6.636;2023-04-12T15:52:52;10.90;99.90
52941;DHT22;62001;53.366;6.636;2023-04-12T15:55:19;10.90;99.90